createdAt,value
2023-03-29T00:01:00.468Z,67.31
2023-03-29T00:03:30.908Z,67.44
2023-03-29T00:06:05.659Z,67.43
2023-03-29T00:08:38.144Z,67.63
2023-03-29T00:11:06.401Z,67.45
2023-03-29T00:13:35.266Z,67.58
2023-03-29T00:16:03.655Z,67.58
2023-03-29T00:18:31.734Z,67.35
2023-03-29T00:21:01.017Z,67.44
2023-03-29T00:23:30.727Z,67.64
2023-03-29T00:25:59.112Z,67.60
2023-03-29T00:28:27.288Z,67.44
2023-03-29T00:31:05.392Z,67.44
2023-03-29T00:33:34.382Z,67.10
2023-03-29T00:36:04.641Z,67.39
2023-03-29T00:38:33.615Z,67.10
2023-03-29T00:41:04.037Z,67.08
2023-03-29T00:43:52.159Z,67.07
2023-03-29T00:46:20.315Z,67.00
2023-03-29T00:48:49.707Z,66.90
2023-03-29T00:51:20.785Z,66.92
2023-03-29T00:53:54.138Z,67.06
2023-03-29T00:56:27.865Z,67.15
2023-03-29T00:59:07.254Z,67.25
2023-03-29T01:01:55.340Z,67.63
2023-03-29T01:04:50.957Z,68.03
2023-03-29T01:07:26.205Z,68.49
2023-03-29T01:10:00.823Z,69.00
2023-03-29T01:12:36.175Z,69.74
2023-03-29T01:15:26.658Z,70.52
2023-03-29T01:17:58.181Z,71.22
2023-03-29T01:21:03.370Z,71.35
2023-03-29T01:23:58.569Z,71.23
2023-03-29T01:26:35.393Z,71.48
2023-03-29T01:29:26.919Z,71.74
2023-03-29T01:32:00.787Z,72.22
2023-03-29T01:34:48.075Z,72.17
2023-03-29T01:37:34.593Z,71.94
2023-03-29T01:40:05.426Z,71.87
2023-03-29T01:42:56.431Z,71.64
2023-03-29T01:45:39.119Z,71.61
2023-03-29T01:48:16.616Z,71.22
2023-03-29T01:50:48.604Z,71.13
2023-03-29T01:53:32.138Z,70.85
2023-03-29T01:56:07.887Z,70.99
2023-03-29T01:58:44.898Z,70.84
2023-03-29T02:01:17.938Z,70.38
2023-03-29T02:03:50.953Z,70.43
2023-03-29T02:06:22.602Z,70.15
2023-03-29T02:08:53.200Z,70.06
2023-03-29T02:11:23.646Z,69.71
2023-03-29T02:13:51.590Z,69.24
2023-03-29T02:16:20.978Z,68.97
2023-03-29T02:18:53.008Z,68.24
2023-03-29T02:21:28.200Z,68.25
2023-03-29T02:24:00.174Z,67.37
2023-03-29T02:26:29.290Z,67.28
2023-03-29T02:28:57.545Z,67.21
2023-03-29T02:31:39.262Z,67.34
2023-03-29T02:34:20.426Z,66.86
2023-03-29T02:36:55.449Z,66.93
2023-03-29T02:39:31.928Z,67.38
2023-03-29T02:42:01.590Z,67.78
2023-03-29T02:44:32.672Z,68.18
2023-03-29T02:47:08.154Z,68.38
2023-03-29T02:49:36.497Z,68.21
2023-03-29T02:52:16.666Z,67.96
2023-03-29T02:54:48.810Z,67.98
2023-03-29T02:57:17.474Z,68.18
2023-03-29T02:59:45.880Z,68.16
2023-03-29T03:02:14.354Z,68.34
2023-03-29T03:04:43.551Z,68.22
2023-03-29T03:07:12.148Z,68.13
2023-03-29T03:09:41.444Z,67.80
2023-03-29T03:12:10.235Z,68.02
2023-03-29T03:14:38.394Z,68.38
2023-03-29T03:17:06.561Z,68.43
2023-03-29T03:19:35.046Z,68.88
2023-03-29T03:22:06.017Z,68.75
2023-03-29T03:24:34.643Z,68.64
2023-03-29T03:27:03.783Z,68.62
2023-03-29T03:29:32.240Z,68.29
2023-03-29T03:32:12.606Z,68.30
2023-03-29T03:34:59.209Z,68.38
2023-03-29T03:37:28.222Z,68.31
2023-03-29T03:39:56.683Z,68.23
2023-03-29T03:42:28.522Z,68.46
2023-03-29T03:44:57.534Z,68.17
2023-03-29T03:47:42.708Z,68.22
2023-03-29T03:50:20.924Z,68.25
2023-03-29T03:52:49.289Z,68.42
2023-03-29T03:55:17.980Z,68.05
2023-03-29T03:57:53.629Z,68.15
2023-03-29T04:00:23.035Z,68.24
2023-03-29T04:02:58.711Z,68.07
2023-03-29T04:05:27.119Z,67.94
2023-03-29T04:07:56.271Z,67.80
2023-03-29T04:10:31.375Z,67.85
2023-03-29T04:13:16.061Z,67.88
2023-03-29T04:16:04.021Z,67.58
2023-03-29T04:18:32.476Z,67.39
2023-03-29T04:21:02.242Z,67.39
2023-03-29T04:23:32.484Z,67.20
2023-03-29T04:26:00.454Z,67.40
2023-03-29T04:28:54.467Z,67.41
2023-03-29T04:31:42.809Z,67.41
2023-03-29T04:34:34.109Z,67.43
2023-03-29T04:37:02.788Z,67.23
2023-03-29T04:39:32.169Z,67.46
2023-03-29T04:42:00.786Z,67.48
2023-03-29T04:44:33.834Z,67.37
2023-03-29T04:47:04.501Z,67.64
2023-03-29T04:49:47.837Z,64.77
2023-03-29T04:52:24.488Z,62.69
2023-03-29T04:54:53.181Z,62.82
2023-03-29T04:57:41.525Z,62.61
2023-03-29T05:00:20.471Z,61.42
2023-03-29T05:03:27.260Z,57.61
2023-03-29T05:06:09.359Z,55.84
2023-03-29T05:08:40.632Z,53.12
2023-03-29T05:11:20.022Z,52.68
2023-03-29T05:13:48.485Z,51.30
2023-03-29T05:16:17.131Z,50.20
2023-03-29T05:18:45.211Z,50.38
2023-03-29T05:21:13.500Z,51.85
2023-03-29T05:23:44.994Z,52.23
2023-03-29T05:26:47.715Z,52.44
2023-03-29T05:29:15.916Z,53.68
2023-03-29T05:31:45.190Z,53.79
2023-03-29T05:34:13.609Z,53.95
2023-03-29T05:36:46.597Z,55.16
2023-03-29T05:39:15.878Z,56.14
2023-03-29T05:41:44.778Z,56.99
2023-03-29T05:44:34.480Z,57.70
2023-03-29T05:47:11.529Z,58.26
2023-03-29T05:49:41.035Z,59.14
2023-03-29T05:52:17.036Z,59.42
2023-03-29T05:54:45.270Z,59.67
2023-03-29T05:57:13.582Z,59.99
2023-03-29T05:59:42.544Z,60.32
2023-03-29T06:02:12.560Z,60.31
2023-03-29T06:04:45.092Z,60.72
2023-03-29T06:07:38.391Z,60.65
2023-03-29T06:10:39.129Z,60.44
2023-03-29T06:13:25.221Z,60.61
2023-03-29T06:15:54.544Z,60.50
2023-03-29T06:18:23.717Z,60.53
2023-03-29T06:20:53.323Z,59.76
2023-03-29T06:23:23.431Z,59.60
2023-03-29T06:25:51.658Z,59.50
2023-03-29T06:28:20.105Z,59.55
2023-03-29T06:30:49.224Z,58.68
2023-03-29T06:33:18.934Z,59.04
2023-03-29T06:35:59.207Z,59.61
2023-03-29T06:38:29.001Z,59.23
2023-03-29T06:41:11.287Z,58.82
2023-03-29T06:44:17.452Z,58.58
2023-03-29T06:46:59.611Z,57.49
2023-03-29T06:49:28.319Z,57.24
2023-03-29T06:52:20.154Z,56.89
2023-03-29T06:54:49.759Z,55.94
2023-03-29T06:57:17.871Z,55.94
2023-03-29T06:59:47.636Z,56.05
2023-03-29T07:02:23.215Z,55.26
2023-03-29T07:04:57.087Z,54.93
2023-03-29T07:07:44.207Z,54.29
2023-03-29T07:10:32.831Z,53.45
2023-03-29T07:13:20.904Z,52.98
2023-03-29T07:15:50.434Z,53.39
2023-03-29T07:18:36.901Z,51.95
2023-03-29T07:21:06.643Z,52.03
2023-03-29T07:23:36.089Z,51.65
2023-03-29T07:26:08.236Z,51.48
2023-03-29T07:28:40.316Z,51.75
2023-03-29T07:31:11.897Z,51.80
2023-03-29T07:33:46.798Z,51.44
2023-03-29T07:36:15.895Z,51.03
2023-03-29T07:38:44.922Z,50.67
2023-03-29T07:41:17.702Z,50.30
2023-03-29T07:43:49.697Z,49.90
2023-03-29T07:46:19.738Z,49.39
2023-03-29T07:48:48.047Z,49.24
2023-03-29T07:51:17.105Z,48.49
2023-03-29T07:53:46.556Z,48.71
2023-03-29T07:56:49.917Z,48.28
2023-03-29T07:59:21.804Z,48.04
2023-03-29T08:01:56.902Z,48.76
2023-03-29T08:04:25.357Z,48.87
2023-03-29T08:07:14.395Z,48.54
2023-03-29T08:10:22.179Z,47.68
2023-03-29T08:12:52.372Z,47.41
2023-03-29T08:15:26.648Z,46.63
2023-03-29T08:17:54.932Z,46.85
2023-03-29T08:20:23.859Z,47.40
2023-03-29T08:22:54.829Z,47.50
2023-03-29T08:25:30.495Z,47.08
2023-03-29T08:27:59.182Z,45.86
2023-03-29T08:30:37.277Z,45.05
2023-03-29T08:33:05.590Z,44.98
2023-03-29T08:35:34.254Z,43.68
2023-03-29T08:38:20.012Z,43.10
2023-03-29T08:40:49.624Z,44.22
2023-03-29T08:43:29.310Z,43.85
2023-03-29T08:46:57.352Z,44.34
2023-03-29T08:49:29.384Z,44.58
2023-03-29T08:52:02.988Z,44.18
2023-03-29T08:54:44.836Z,44.02
2023-03-29T08:57:46.714Z,43.98
2023-03-29T09:00:19.155Z,44.41
2023-03-29T09:02:49.287Z,44.23
2023-03-29T09:05:23.673Z,43.75
2023-03-29T09:08:13.450Z,43.63
2023-03-29T09:11:00.692Z,42.89
2023-03-29T09:13:49.953Z,42.47
2023-03-29T09:16:41.140Z,41.87
2023-03-29T09:19:32.980Z,40.92
2023-03-29T09:22:23.707Z,40.73
2023-03-29T09:25:00.637Z,40.07
2023-03-29T09:27:44.592Z,39.33
2023-03-29T09:30:41.903Z,39.05
2023-03-29T09:33:29.374Z,38.94
2023-03-29T09:36:37.805Z,39.19
2023-03-29T09:39:13.452Z,38.96
2023-03-29T09:41:51.759Z,38.10
2023-03-29T09:44:31.256Z,36.93
2023-03-29T09:47:26.584Z,36.91
2023-03-29T09:50:02.021Z,36.98
2023-03-29T09:52:30.330Z,36.44
2023-03-29T09:55:13.221Z,36.51
2023-03-29T09:58:00.870Z,36.51
2023-03-29T10:00:30.214Z,35.59
2023-03-29T10:03:00.454Z,34.85
2023-03-29T10:05:48.133Z,34.30
2023-03-29T10:08:22.491Z,34.00
2023-03-29T10:10:51.742Z,34.45
2023-03-29T10:13:35.352Z,34.11
2023-03-29T10:16:07.798Z,33.62
2023-03-29T10:18:43.311Z,33.24
2023-03-29T10:21:17.886Z,32.82
2023-03-29T10:23:46.190Z,32.37
2023-03-29T10:26:44.273Z,32.31
2023-03-29T10:29:13.362Z,32.42
2023-03-29T10:31:43.253Z,32.54
2023-03-29T10:34:15.409Z,32.02
2023-03-29T10:37:02.349Z,32.35
2023-03-29T10:39:34.691Z,33.16
2023-03-29T10:42:04.542Z,33.38
2023-03-29T10:44:36.515Z,33.34
2023-03-29T10:47:16.996Z,32.55
2023-03-29T10:49:50.997Z,31.38
2023-03-29T10:52:19.354Z,31.52
2023-03-29T10:54:49.605Z,32.13
2023-03-29T10:57:46.935Z,32.66
2023-03-29T11:00:22.230Z,31.72
2023-03-29T11:03:23.393Z,30.67
2023-03-29T11:06:07.854Z,30.37
2023-03-29T11:08:58.638Z,30.03
2023-03-29T11:12:15.764Z,30.54
2023-03-29T11:14:52.875Z,30.94
2023-03-29T11:17:35.890Z,29.92
2023-03-29T11:20:52.572Z,29.90
2023-03-29T11:24:06.859Z,29.48
2023-03-29T11:26:41.164Z,29.44
2023-03-29T11:29:28.589Z,28.80
2023-03-29T11:32:27.711Z,28.17
2023-03-29T11:35:16.413Z,28.48
2023-03-29T11:37:57.351Z,28.49
2023-03-29T11:40:39.346Z,28.88
2023-03-29T11:43:21.209Z,28.40
2023-03-29T11:46:00.237Z,28.77
2023-03-29T11:48:34.882Z,29.04
2023-03-29T11:51:12.982Z,29.22
2023-03-29T11:53:50.880Z,29.49
2023-03-29T11:56:44.487Z,30.34
2023-03-29T11:59:21.222Z,31.03
2023-03-29T12:01:55.143Z,31.23
2023-03-29T12:04:32.766Z,30.74
2023-03-29T12:07:32.322Z,30.70
2023-03-29T12:10:18.002Z,30.48
2023-03-29T12:12:55.503Z,31.00
2023-03-29T12:15:26.801Z,31.18
2023-03-29T12:18:01.104Z,31.35
2023-03-29T12:20:33.782Z,31.11
2023-03-29T12:23:06.219Z,30.51
2023-03-29T12:25:38.285Z,30.32
2023-03-29T12:28:34.072Z,30.05
2023-03-29T12:31:08.316Z,29.78
2023-03-29T12:33:58.987Z,30.05
2023-03-29T12:37:25.766Z,29.76
2023-03-29T12:40:28.425Z,29.67
2023-03-29T12:43:30.506Z,29.65
2023-03-29T12:46:31.375Z,29.08
2023-03-29T12:49:11.601Z,28.59
2023-03-29T12:51:42.464Z,28.81
2023-03-29T12:54:16.734Z,29.35
2023-03-29T12:56:58.567Z,29.40
2023-03-29T12:59:34.178Z,29.73
2023-03-29T13:02:14.320Z,29.96
2023-03-29T13:04:42.731Z,29.96
2023-03-29T13:07:22.938Z,29.50
2023-03-29T13:10:05.190Z,28.95
2023-03-29T13:12:43.610Z,29.11
2023-03-29T13:15:14.751Z,29.41
2023-03-29T13:17:46.561Z,29.43
2023-03-29T13:20:33.213Z,29.98
2023-03-29T13:23:35.544Z,30.62
2023-03-29T13:26:30.067Z,30.51
2023-03-29T13:29:10.946Z,30.49
2023-03-29T13:31:57.046Z,31.01
2023-03-29T13:34:45.388Z,30.72
2023-03-29T13:37:22.668Z,30.55
2023-03-29T13:39:53.598Z,30.59
2023-03-29T13:42:35.615Z,29.96
2023-03-29T13:45:25.421Z,30.25
2023-03-29T13:48:28.430Z,31.03
2023-03-29T13:51:21.629Z,30.96
2023-03-29T13:54:00.858Z,31.10
2023-03-29T13:56:38.626Z,31.66
2023-03-29T13:59:18.186Z,32.01
2023-03-29T14:01:57.902Z,31.76
2023-03-29T14:04:38.003Z,32.15
2023-03-29T14:07:08.267Z,32.53
2023-03-29T14:09:42.859Z,33.17
2023-03-29T14:12:14.607Z,33.74
2023-03-29T14:14:57.823Z,34.28
2023-03-29T14:17:27.312Z,34.77
2023-03-29T14:19:58.700Z,35.52
2023-03-29T14:22:33.044Z,35.72
2023-03-29T14:25:05.768Z,35.38
2023-03-29T14:27:37.268Z,34.54
2023-03-29T14:30:38.178Z,34.49
2023-03-29T14:33:06.440Z,34.62
2023-03-29T14:35:34.802Z,35.12
2023-03-29T14:38:03.948Z,34.92
2023-03-29T14:40:32.937Z,34.89
2023-03-29T14:43:06.078Z,34.10
2023-03-29T14:45:34.693Z,32.95
2023-03-29T14:48:03.418Z,32.33
2023-03-29T14:50:31.966Z,32.42
2023-03-29T14:53:01.790Z,32.71
2023-03-29T14:55:31.175Z,32.92
2023-03-29T14:58:00.663Z,33.29
2023-03-29T15:00:38.764Z,33.82
2023-03-29T15:03:14.539Z,34.19
2023-03-29T15:05:48.123Z,34.14
2023-03-29T15:08:38.220Z,34.01
2023-03-29T15:11:20.305Z,34.38
2023-03-29T15:13:50.976Z,35.69
2023-03-29T15:16:22.152Z,35.46
2023-03-29T15:18:52.909Z,35.83
2023-03-29T15:21:22.214Z,36.04
2023-03-29T15:23:59.537Z,36.47
2023-03-29T15:26:38.359Z,36.54
2023-03-29T15:29:23.829Z,36.86
2023-03-29T15:31:59.429Z,36.94
2023-03-29T15:34:30.233Z,37.09
2023-03-29T15:36:59.770Z,37.05
2023-03-29T15:39:29.589Z,37.30
2023-03-29T15:41:58.515Z,37.10
2023-03-29T15:44:33.164Z,37.10
2023-03-29T15:47:01.377Z,36.85
2023-03-29T15:49:29.573Z,36.68
2023-03-29T15:51:57.857Z,36.93
2023-03-29T15:54:26.012Z,36.99
2023-03-29T15:57:01.883Z,37.03
2023-03-29T15:59:33.725Z,36.86
2023-03-29T16:02:02.043Z,37.01
2023-03-29T16:04:30.191Z,37.17
2023-03-29T16:06:58.362Z,37.40
2023-03-29T16:09:27.544Z,37.47
2023-03-29T16:11:55.848Z,37.45
2023-03-29T16:14:30.571Z,37.12
2023-03-29T16:17:00.366Z,37.21
2023-03-29T16:19:30.163Z,37.36
2023-03-29T16:21:59.916Z,37.62
2023-03-29T16:24:31.373Z,37.61
2023-03-29T16:27:01.550Z,37.70
2023-03-29T16:29:30.685Z,37.78
2023-03-29T16:31:59.318Z,38.04
2023-03-29T16:34:27.666Z,38.55
2023-03-29T16:36:55.665Z,39.38
2023-03-29T16:39:23.850Z,38.95
2023-03-29T16:41:52.033Z,38.71
2023-03-29T16:44:26.541Z,38.80
2023-03-29T16:46:57.474Z,38.88
2023-03-29T16:49:25.758Z,39.31
2023-03-29T16:51:53.824Z,39.32
2023-03-29T16:54:21.997Z,39.45
2023-03-29T16:56:50.092Z,39.48
2023-03-29T16:59:18.347Z,39.43
2023-03-29T17:01:47.012Z,39.58
2023-03-29T17:04:15.518Z,40.10
2023-03-29T17:06:43.775Z,40.35
2023-03-29T17:09:11.853Z,40.51
2023-03-29T17:11:41.507Z,40.34
2023-03-29T17:14:10.443Z,40.44
2023-03-29T17:16:38.743Z,40.85
2023-03-29T17:19:07.208Z,40.61
2023-03-29T17:21:35.392Z,40.96
2023-03-29T17:24:03.471Z,41.38
2023-03-29T17:26:31.732Z,41.31
2023-03-29T17:28:59.797Z,41.21
2023-03-29T17:31:28.007Z,41.63
2023-03-29T17:33:56.238Z,41.52
2023-03-29T17:36:25.275Z,41.85
2023-03-29T17:38:54.857Z,41.75
2023-03-29T17:41:25.163Z,41.91
2023-03-29T17:43:53.139Z,42.07
2023-03-29T17:46:23.040Z,41.92
2023-03-29T17:48:51.626Z,42.40
2023-03-29T17:51:20.611Z,42.15
2023-03-29T17:53:48.822Z,42.36
2023-03-29T17:56:21.821Z,42.42
2023-03-29T17:58:50.772Z,42.58
2023-03-29T18:01:20.013Z,42.53
2023-03-29T18:03:49.619Z,42.53
2023-03-29T18:06:20.536Z,42.96
2023-03-29T18:08:48.925Z,43.32
2023-03-29T18:11:22.569Z,43.65
2023-03-29T18:13:59.696Z,43.97
2023-03-29T18:16:27.917Z,45.33
2023-03-29T18:18:56.666Z,46.75
2023-03-29T18:21:26.256Z,46.66
2023-03-29T18:23:56.819Z,46.46
2023-03-29T18:26:25.982Z,46.74
2023-03-29T18:28:54.766Z,46.57
2023-03-29T18:31:23.106Z,46.95
2023-03-29T18:33:51.542Z,46.75
2023-03-29T18:36:19.999Z,47.26
2023-03-29T18:38:49.217Z,47.48
2023-03-29T18:41:17.555Z,47.32
2023-03-29T18:43:46.975Z,47.36
2023-03-29T18:46:17.568Z,47.86
2023-03-29T18:48:46.506Z,47.73
2023-03-29T18:51:15.184Z,47.59
2023-03-29T18:53:44.399Z,49.00
2023-03-29T18:56:12.763Z,49.08
2023-03-29T18:58:42.048Z,49.17
2023-03-29T19:01:11.042Z,48.78
2023-03-29T19:03:40.135Z,49.20
2023-03-29T19:06:09.144Z,49.42
2023-03-29T19:08:39.730Z,50.04
2023-03-29T19:11:10.818Z,50.41
2023-03-29T19:13:39.086Z,50.41
2023-03-29T19:16:07.647Z,50.55
2023-03-29T19:18:36.253Z,50.49
2023-03-29T19:21:07.386Z,50.86
2023-03-29T19:23:36.504Z,51.04
2023-03-29T19:26:06.053Z,52.12
2023-03-29T19:28:34.576Z,51.85
2023-03-29T19:31:03.829Z,51.38
2023-03-29T19:33:32.561Z,51.36
2023-03-29T19:36:00.721Z,51.33
2023-03-29T19:38:28.904Z,51.08
2023-03-29T19:40:57.081Z,51.59
2023-03-29T19:43:25.537Z,51.91
2023-03-29T19:45:53.620Z,51.80
2023-03-29T19:48:23.542Z,52.02
2023-03-29T19:50:52.538Z,54.84
2023-03-29T19:53:21.282Z,54.92
2023-03-29T19:55:49.693Z,55.18
2023-03-29T19:58:17.886Z,55.60
2023-03-29T20:00:46.963Z,55.61
2023-03-29T20:03:15.852Z,56.12
2023-03-29T20:05:44.227Z,55.57
2023-03-29T20:08:12.403Z,54.50
2023-03-29T20:10:40.418Z,54.29
2023-03-29T20:13:08.864Z,54.12
2023-03-29T20:15:37.034Z,54.06
2023-03-29T20:18:06.162Z,53.78
2023-03-29T20:20:35.855Z,53.87
2023-03-29T20:23:05.232Z,54.09
2023-03-29T20:25:36.324Z,53.76
2023-03-29T20:28:06.615Z,53.96
2023-03-29T20:30:35.254Z,54.17
2023-03-29T20:33:04.502Z,54.27
2023-03-29T20:35:33.093Z,54.73
2023-03-29T20:38:01.633Z,55.23
2023-03-29T20:40:30.349Z,55.39
2023-03-29T20:42:58.503Z,55.38
2023-03-29T20:45:26.666Z,55.14
2023-03-29T20:48:02.629Z,55.09
2023-03-29T20:50:31.039Z,55.72
2023-03-29T20:53:03.676Z,56.20
2023-03-29T20:55:33.550Z,55.72
2023-03-29T20:58:02.294Z,55.42
2023-03-29T21:00:32.397Z,55.48
2023-03-29T21:03:01.306Z,55.51
2023-03-29T21:05:33.162Z,55.41
2023-03-29T21:08:02.772Z,55.65
2023-03-29T21:10:30.962Z,55.64
2023-03-29T21:13:02.877Z,55.71
2023-03-29T21:15:32.237Z,55.85
2023-03-29T21:18:00.396Z,56.12
2023-03-29T21:20:28.643Z,56.30
2023-03-29T21:22:57.324Z,56.79
2023-03-29T21:25:25.391Z,57.74
2023-03-29T21:27:53.294Z,58.33
2023-03-29T21:30:21.854Z,58.79
2023-03-29T21:32:49.979Z,59.66
2023-03-29T21:35:18.181Z,59.86
2023-03-29T21:37:46.453Z,60.14
2023-03-29T21:40:15.465Z,60.12
2023-03-29T21:42:43.484Z,60.56
2023-03-29T21:45:12.001Z,60.43
2023-03-29T21:47:40.008Z,60.26
2023-03-29T21:50:09.576Z,59.67
2023-03-29T21:52:38.194Z,59.56
2023-03-29T21:55:07.156Z,60.00
2023-03-29T21:57:35.325Z,59.80
2023-03-29T22:00:10.924Z,59.74
2023-03-29T22:02:40.152Z,59.42
2023-03-29T22:05:08.875Z,59.65
2023-03-29T22:07:38.800Z,59.38
2023-03-29T22:10:12.498Z,59.61
2023-03-29T22:12:41.472Z,59.95
2023-03-29T22:15:13.676Z,60.10
2023-03-29T22:17:43.118Z,60.41
2023-03-29T22:20:14.770Z,60.06
2023-03-29T22:22:52.602Z,60.01
2023-03-29T22:25:21.483Z,61.46
2023-03-29T22:27:50.173Z,62.18
2023-03-29T22:30:18.396Z,61.69
2023-03-29T22:32:46.502Z,61.99
2023-03-29T22:35:14.688Z,62.78
2023-03-29T22:37:45.846Z,62.64
2023-03-29T22:40:14.203Z,61.93
2023-03-29T22:42:42.335Z,61.65
2023-03-29T22:45:11.071Z,61.38
2023-03-29T22:47:39.018Z,61.56
2023-03-29T22:50:07.933Z,61.30
2023-03-29T22:52:36.088Z,61.47
2023-03-29T22:55:04.693Z,61.93
2023-03-29T22:57:33.482Z,62.27
2023-03-29T23:00:01.845Z,62.79
2023-03-29T23:02:30.069Z,62.14
2023-03-29T23:04:58.604Z,61.73
2023-03-29T23:07:28.311Z,61.60
2023-03-29T23:09:56.686Z,62.02
2023-03-29T23:12:24.917Z,62.39
2023-03-29T23:14:53.112Z,62.18
2023-03-29T23:17:21.505Z,61.95
2023-03-29T23:19:49.589Z,62.31
2023-03-29T23:22:17.650Z,62.90
2023-03-29T23:24:47.389Z,62.89
2023-03-29T23:27:15.630Z,62.29
2023-03-29T23:29:45.359Z,62.40
2023-03-29T23:32:15.792Z,62.50
2023-03-29T23:34:44.769Z,62.99
2023-03-29T23:37:13.151Z,63.00
2023-03-29T23:39:41.810Z,63.82
2023-03-29T23:42:10.636Z,64.63
2023-03-29T23:44:38.781Z,65.01
2023-03-29T23:47:07.316Z,65.30
2023-03-29T23:49:36.405Z,65.35
2023-03-29T23:52:05.152Z,64.61
2023-03-29T23:54:33.228Z,64.32
2023-03-29T23:57:01.792Z,64.38
2023-03-29T23:59:31.305Z,64.14
